EDDS/STR METAR and TAF weather

Enter ICAO airport designator
Station Type Date Time Source
EDDS METAR 2018/07/21 13:20 UTC NOAA

EDDS 211320Z 34004KT 310V040 9999 -RA SCT009 BKN090 19/17 Q1013 NOSIG


Station Type Date Time Source
EDDS Decoded METAR 2018/07/21 13:20 UTC NOAA

Stuttgart-Echterdingen, Germany (EDDS) 48-41N 009-13E 391M
Jul 21, 2018 - 09:20 AM EDT / 2018.07.21 1320 UTC
Wind: from the NNW (340 degrees) at 5 MPH (4 KT) (direction variable):0
Visibility: greater than 7 mile(s):0
Sky conditions: mostly cloudy
Weather: light rain
Temperature: 66 F (19 C)
Dew Point: 62 F (17 C)
Relative Humidity: 88%
Pressure (altimeter): 29.91 in. Hg (1013 hPa)
ob: EDDS 211320Z 34004KT 310V040 9999 -RA SCT009 BKN090 19/17 Q1013 NOSIG
cycle: 13

Station Type Date Time Source
EDDS TAF 2018/07/21 12:27 UTC NOAA

TAF TAF EDDS 211100Z 2112/2212 VRB03KT 9999 SCT020 BKN035
TEMPO 2112/2120 30015G25KT 4000 TSRA SCT012 BKN030CB PROB30
TEMPO 2112/2115 BKN009 PROB30
TEMPO 2202/2208 4000 -RA BKN009


Example: see airport list